Time,TemperatureF,DewpointF,PressureIn,WindDirection,WindDirectionDegrees,WindSpeedMPH,WindSpeedGustMPH,Humidity,HourlyPrecipIn,Conditions,Clouds,dailyrainin,SoftwareType,DateUTC
2013-07-05 00:07:00,65.2,61.0,30.05,SE,129,0.0,0.0,85,0.00,,,0.00,weatherlink.com 1.10,2013-07-05 04:07:00,
2013-07-05 00:22:00,65.1,61.0,30.05,ESE,117,0.0,0.0,85,0.00,,,0.00,weatherlink.com 1.10,2013-07-05 04:22:00,
2013-07-05 00:37:00,64.2,60.0,30.06,ESE,117,0.0,0.0,87,0.00,,,0.00,weatherlink.com 1.10,2013-07-05 04:37:00,
2013-07-05 00:52:00,63.9,60.0,30.05,ESE,117,0.0,0.0,88,0.00,,,0.00,weatherlink.com 1.10,2013-07-05 04:52:00,
2013-07-05 01:07:00,63.8,61.0,30.06,ESE,117,0.0,0.0,90,0.00,,,0.00,weatherlink.com 1.10,2013-07-05 05:07:00,
2013-07-05 01:22:00,64.2,61.0,30.06,South,172,0.0,0.0,89,0.00,,,0.00,weatherlink.com 1.10,2013-07-05 05:22:00,
2013-07-05 01:37:00,64.8,61.0,30.06,SE,138,0.0,1.0,88,0.00,,,0.00,weatherlink.com 1.10,2013-07-05 05:37:00,
2013-07-05 01:52:00,65.3,61.0,30.05,ESE,105,0.0,1.0,86,0.00,,,0.00,weatherlink.com 1.10,2013-07-05 05:52:00,
2013-07-05 02:07:00,65.5,61.0,30.04,ESE,105,0.0,0.0,86,0.00,,,0.00,weatherlink.com 1.10,2013-07-05 06:07:00,
2013-07-05 02:22:00,65.0,61.0,30.04,ESE,105,0.0,0.0,87,0.00,,,0.00,weatherlink.com 1.10,2013-07-05 06:22:00,
2013-07-05 02:37:00,64.5,61.0,30.04,ESE,105,0.0,0.0,88,0.00,,,0.00,weatherlink.com 1.10,2013-07-05 06:37:00,
2013-07-05 02:52:00,64.2,61.0,30.04,ESE,107,0.0,0.0,89,0.00,,,0.00,weatherlink.com 1.10,2013-07-05 06:52:00,
2013-07-05 03:07:00,64.1,61.0,30.04,ESE,107,0.0,0.0,90,0.00,,,0.00,weatherlink.com 1.10,2013-07-05 07:07:00,
2013-07-05 03:22:00,64.7,62.0,30.04,ESE,105,0.0,0.0,90,0.00,,,0.00,weatherlink.com 1.10,2013-07-05 07:22:00,
2013-07-05 03:37:00,64.6,61.0,30.04,ESE,105,0.0,0.0,89,0.00,,,0.00,weatherlink.com 1.10,2013-07-05 07:37:00,
2013-07-05 03:52:00,64.5,62.0,30.04,ESE,106,0.0,0.0,90,0.00,,,0.00,weatherlink.com 1.10,2013-07-05 07:52:00,
2013-07-05 04:07:00,65.0,62.0,30.03,ESE,106,0.0,0.0,91,0.00,,,0.00,weatherlink.com 1.10,2013-07-05 08:07:00,
2013-07-05 04:22:00,64.8,62.0,30.03,ESE,106,0.0,0.0,91,0.00,,,0.00,weatherlink.com 1.10,2013-07-05 08:22:00,
2013-07-05 04:37:00,64.7,62.0,30.03,ESE,106,0.0,0.0,91,0.00,,,0.00,weatherlink.com 1.10,2013-07-05 08:37:00,
2013-07-05 04:52:00,64.5,62.0,30.04,ESE,105,0.0,0.0,91,0.00,,,0.00,weatherlink.com 1.10,2013-07-05 08:52:00,
2013-07-05 05:22:00,64.5,63.0,30.04,ESE,106,0.0,0.0,93,0.00,,,0.00,weatherlink.com 1.10,2013-07-05 09:22:00,
2013-07-05 05:37:00,64.6,63.0,30.04,ESE,107,0.0,1.0,93,0.00,,,0.00,weatherlink.com 1.10,2013-07-05 09:37:00,
2013-07-05 05:52:00,64.4,62.0,30.04,ESE,104,0.0,1.0,93,0.00,,,0.00,weatherlink.com 1.10,2013-07-05 09:52:00,
2013-07-05 06:07:00,64.3,62.0,30.05,ESE,104,0.0,1.0,93,0.00,,,0.00,weatherlink.com 1.10,2013-07-05 10:07:00,
2013-07-05 06:37:00,63.8,62.0,30.05,ESE,104,0.0,0.0,94,0.00,,,0.00,weatherlink.com 1.10,2013-07-05 10:37:00,
2013-07-05 07:07:00,64.0,62.0,30.06,ESE,104,0.0,0.0,94,0.00,,,0.00,weatherlink.com 1.10,2013-07-05 11:07:00,
2013-07-05 07:22:00,64.9,64.0,30.05,ESE,104,0.0,0.0,95,0.00,,,0.00,weatherlink.com 1.10,2013-07-05 11:22:00,
2013-07-05 07:37:00,65.6,64.0,30.06,ESE,104,0.0,0.0,94,0.00,,,0.00,weatherlink.com 1.10,2013-07-05 11:37:00,
2013-07-05 08:07:00,67.6,65.0,30.05,ESE,104,0.0,0.0,92,0.00,,,0.00,weatherlink.com 1.10,2013-07-05 12:07:00,
2013-07-05 08:53:00,70.2,64.0,30.06,SSE,150,0.0,1.0,81,0.00,,,0.00,weatherlink.com 1.10,2013-07-05 12:53:00,
2013-07-05 09:08:00,70.8,64.0,30.06,NW,305,0.0,2.0,79,0.00,,,0.00,weatherlink.com 1.10,2013-07-05 13:08:00,
2013-07-05 09:23:00,71.3,64.0,30.06,NW,311,2.0,3.0,78,0.00,,,0.00,weatherlink.com 1.10,2013-07-05 13:23:00,
2013-07-05 09:38:00,72.0,64.0,30.07,NW,308,0.0,3.0,77,0.00,,,0.00,weatherlink.com 1.10,2013-07-05 13:38:00,
2013-07-05 10:08:00,74.9,65.0,30.07,NNE,33,3.0,5.0,72,0.00,,,0.00,weatherlink.com 1.10,2013-07-05 14:08:00,
2013-07-05 10:23:00,76.1,65.0,30.07,NE,40,2.0,5.0,69,0.00,,,0.00,weatherlink.com 1.10,2013-07-05 14:23:00,
2013-07-05 10:38:00,76.4,66.0,30.07,West,276,0.0,2.0,69,0.00,,,0.00,weatherlink.com 1.10,2013-07-05 14:38:00,
2013-07-05 10:53:00,77.1,66.0,30.07,NW,304,0.0,3.0,68,0.00,,,0.00,weatherlink.com 1.10,2013-07-05 14:53:00,
2013-07-05 11:08:00,77.4,66.0,30.07,WSW,252,0.0,3.0,69,0.00,,,0.00,weatherlink.com 1.10,2013-07-05 15:08:00,
2013-07-05 11:23:00,78.1,66.0,30.07,SSW,203,0.0,4.0,66,0.00,,,0.00,weatherlink.com 1.10,2013-07-05 15:23:00,
2013-07-05 11:38:00,78.3,66.0,30.07,SSW,201,2.0,3.0,66,0.00,,,0.00,weatherlink.com 1.10,2013-07-05 15:38:00,
2013-07-05 11:53:00,78.8,66.0,30.07,NNW,332,2.0,4.0,64,0.00,,,0.00,weatherlink.com 1.10,2013-07-05 15:53:00,
2013-07-05 12:08:00,78.7,65.0,30.07,WNW,287,0.0,6.0,64,0.00,,,0.00,weatherlink.com 1.10,2013-07-05 16:08:00,
2013-07-05 12:23:00,79.3,66.0,30.07,SE,133,0.0,5.0,64,0.00,,,0.00,weatherlink.com 1.10,2013-07-05 16:23:00,
2013-07-05 12:38:00,79.1,63.0,30.06,NW,326,2.0,7.0,58,0.00,,,0.00,weatherlink.com 1.10,2013-07-05 16:38:00,
2013-07-05 12:53:00,79.4,64.0,30.06,SSW,203,2.0,6.0,60,0.00,,,0.00,weatherlink.com 1.10,2013-07-05 16:53:00,
2013-07-05 13:08:00,81.1,66.0,30.06,WNW,295,2.0,7.0,60,0.00,,,0.00,weatherlink.com 1.10,2013-07-05 17:08:00,
2013-07-05 13:23:00,81.0,66.0,30.06,NW,309,2.0,6.0,60,0.00,,,0.00,weatherlink.com 1.10,2013-07-05 17:23:00,
2013-07-05 13:38:00,80.9,65.0,30.06,NW,316,0.0,10.0,58,0.00,,,0.00,weatherlink.com 1.10,2013-07-05 17:38:00,
2013-07-05 13:53:00,81.9,65.0,30.05,West,276,2.0,6.0,56,0.00,,,0.00,weatherlink.com 1.10,2013-07-05 17:53:00,
2013-07-05 14:08:00,81.8,63.0,30.05,NNW,328,3.0,9.0,54,0.00,,,0.00,weatherlink.com 1.10,2013-07-05 18:08:00,
2013-07-05 14:23:00,81.4,65.0,30.05,SW,221,4.0,7.0,58,0.00,,,0.00,weatherlink.com 1.10,2013-07-05 18:23:00,
2013-07-05 14:38:00,81.4,64.0,30.05,NNW,333,1.0,8.0,56,0.00,,,0.00,weatherlink.com 1.10,2013-07-05 18:38:00,
2013-07-05 14:53:00,82.3,64.0,30.04,WNW,284,3.0,7.0,54,0.00,,,0.00,weatherlink.com 1.10,2013-07-05 18:53:00,
2013-07-05 15:08:00,82.2,65.0,30.04,NW,317,4.0,7.0,56,0.00,,,0.00,weatherlink.com 1.10,2013-07-05 19:08:00,
2013-07-05 15:23:00,83.8,64.0,30.04,West,271,3.0,4.0,52,0.00,,,0.00,weatherlink.com 1.10,2013-07-05 19:23:00,
2013-07-05 15:38:00,84.5,65.0,30.04,South,188,1.0,4.0,53,0.00,,,0.00,weatherlink.com 1.10,2013-07-05 19:38:00,
2013-07-05 15:53:00,84.2,64.0,30.03,SW,229,2.0,5.0,51,0.00,,,0.00,weatherlink.com 1.10,2013-07-05 19:53:00,
2013-07-05 16:08:00,83.8,67.0,30.02,SSW,211,4.0,6.0,57,0.00,,,0.00,weatherlink.com 1.10,2013-07-05 20:08:00,
2013-07-05 16:23:00,83.6,65.0,30.02,West,262,1.0,7.0,54,0.00,,,0.00,weatherlink.com 1.10,2013-07-05 20:23:00,
2013-07-05 16:38:00,82.5,64.0,30.02,WNW,295,3.0,5.0,54,0.00,,,0.00,weatherlink.com 1.10,2013-07-05 20:38:00,
2013-07-05 16:54:00,82.1,66.0,30.01,NW,313,0.0,4.0,58,0.00,,,0.00,weatherlink.com 1.10,2013-07-05 20:54:00,
2013-07-05 17:09:00,83.0,65.0,30.01,SE,142,0.0,4.0,55,0.00,,,0.00,weatherlink.com 1.10,2013-07-05 21:09:00,
2013-07-05 17:24:00,83.6,65.0,30.01,SSE,160,4.0,4.0,53,0.00,,,0.00,weatherlink.com 1.10,2013-07-05 21:24:00,
2013-07-05 17:39:00,83.8,65.0,30.00,SSE,153,0.0,2.0,53,0.00,,,0.00,weatherlink.com 1.10,2013-07-05 21:39:00,
2013-07-05 17:54:00,83.3,66.0,30.00,South,176,1.0,4.0,56,0.00,,,0.00,weatherlink.com 1.10,2013-07-05 21:54:00,
2013-07-05 18:09:00,84.4,66.0,30.00,NE,51,0.0,5.0,54,0.00,,,0.00,weatherlink.com 1.10,2013-07-05 22:09:00,
2013-07-05 18:24:00,83.9,67.0,30.00,SW,225,1.0,4.0,57,0.00,,,0.00,weatherlink.com 1.10,2013-07-05 22:24:00,
2013-07-05 18:39:00,81.9,65.0,30.00,West,260,0.0,4.0,57,0.00,,,0.00,weatherlink.com 1.10,2013-07-05 22:39:00,
2013-07-05 18:54:00,82.2,65.0,30.00,WSW,238,0.0,3.0,57,0.00,,,0.00,weatherlink.com 1.10,2013-07-05 22:54:00,
2013-07-05 19:09:00,82.2,64.0,30.00,West,262,2.0,4.0,54,0.00,,,0.00,weatherlink.com 1.10,2013-07-05 23:09:00,
2013-07-05 19:24:00,82.7,64.0,29.99,West,259,2.0,3.0,54,0.00,,,0.00,weatherlink.com 1.10,2013-07-05 23:24:00,
2013-07-05 19:39:00,82.9,65.0,29.99,SSE,159,2.0,5.0,55,0.00,,,0.00,weatherlink.com 1.10,2013-07-05 23:39:00,
2013-07-05 19:54:00,81.5,64.0,30.00,SE,141,2.0,3.0,56,0.00,,,0.00,weatherlink.com 1.10,2013-07-05 23:54:00,
2013-07-05 20:09:00,80.7,64.0,30.00,WSW,251,0.0,2.0,57,0.00,,,0.00,weatherlink.com 1.10,2013-07-06 00:09:00,
2013-07-05 20:24:00,80.1,64.0,30.00,SSW,212,1.0,1.0,59,0.00,,,0.00,weatherlink.com 1.10,2013-07-06 00:24:00,
2013-07-05 20:39:00,80.0,64.0,30.00,SSW,204,0.0,1.0,58,0.00,,,0.00,weatherlink.com 1.10,2013-07-06 00:39:00,
2013-07-05 20:54:00,79.0,64.0,30.01,SSW,204,0.0,0.0,61,0.00,,,0.00,weatherlink.com 1.10,2013-07-06 00:54:00,
2013-07-05 21:09:00,77.0,65.0,30.01,SSW,205,0.0,0.0,66,0.00,,,0.00,weatherlink.com 1.10,2013-07-06 01:09:00,
2013-07-05 21:24:00,74.8,64.0,30.01,SSW,204,0.0,0.0,70,0.00,,,0.00,weatherlink.com 1.10,2013-07-06 01:24:00,
2013-07-05 21:39:00,73.1,65.0,30.02,SSW,204,0.0,0.0,75,0.00,,,0.00,weatherlink.com 1.10,2013-07-06 01:39:00,
2013-07-05 21:54:00,72.1,65.0,30.02,SSW,203,0.0,0.0,78,0.00,,,0.00,weatherlink.com 1.10,2013-07-06 01:54:00,
2013-07-05 22:09:00,71.2,64.0,30.03,SSW,203,0.0,0.0,79,0.00,,,0.00,weatherlink.com 1.10,2013-07-06 02:09:00,
2013-07-05 22:24:00,72.3,64.0,30.03,SE,134,0.0,1.0,75,0.00,,,0.00,weatherlink.com 1.10,2013-07-06 02:24:00,
2013-07-05 22:39:00,73.2,65.0,30.03,SSW,208,1.0,4.0,75,0.00,,,0.00,weatherlink.com 1.10,2013-07-06 02:39:00,
2013-07-05 22:54:00,73.7,66.0,30.03,SE,135,0.0,4.0,76,0.00,,,0.00,weatherlink.com 1.10,2013-07-06 02:54:00,
2013-07-05 23:09:00,73.5,66.0,30.03,SE,146,0.0,3.0,78,0.00,,,0.00,weatherlink.com 1.10,2013-07-06 03:09:00,
2013-07-05 23:24:00,73.0,67.0,30.03,SSE,163,1.0,4.0,80,0.00,,,0.00,weatherlink.com 1.10,2013-07-06 03:24:00,
2013-07-05 23:39:00,72.5,67.0,30.04,SSW,201,0.0,2.0,82,0.00,,,0.00,weatherlink.com 1.10,2013-07-06 03:39:00,
2013-07-05 23:54:00,72.0,67.0,30.04,SSE,163,0.0,1.0,84,0.00,,,0.00,weatherlink.com 1.10,2013-07-06 03:54:00,